sensor_id;sensor_type;location;lat;lon;timestamp;temperature;humidity
45535;DHT22;35892;48.798;9.698;2023-02-01T00:00:36;5.50;99.90
45535;DHT22;35892;48.798;9.698;2023-02-01T00:03:03;5.50;99.90
45535;DHT22;35892;48.798;9.698;2023-02-01T00:05:31;5.60;99.90
45535;DHT22;35892;48.798;9.698;2023-02-01T00:07:58;5.60;99.90
45535;DHT22;35892;48.798;9.698;2023-02-01T00:10:25;5.60;99.90
45535;DHT22;35892;48.798;9.698;2023-02-01T00:12:51;5.60;99.90
45535;DHT22;35892;48.798;9.698;2023-02-01T00:15:18;5.50;99.90
45535;DHT22;35892;48.798;9.698;2023-02-01T00:17:45;5.50;99.90
45535;DHT22;35892;48.798;9.698;2023-02-01T00:20:12;5.40;99.90
45535;DHT22;35892;48.798;9.698;2023-02-01T00:22:41;5.50;99.90
45535;DHT22;35892;48.798;9.698;2023-02-01T00:25:08;5.50;99.90
45535;DHT22;35892;48.798;9.698;2023-02-01T00:27:35;5.50;99.90
45535;DHT22;35892;48.798;9.698;2023-02-01T00:30:02;5.60;99.90
45535;DHT22;35892;48.798;9.698;2023-02-01T00:32:29;5.50;99.90
45535;DHT22;35892;48.798;9.698;2023-02-01T00:34:58;5.40;99.90
45535;DHT22;35892;48.798;9.698;2023-02-01T00:37:27;5.50;99.90
45535;DHT22;35892;48.798;9.698;2023-02-01T00:39:54;5.50;99.90
45535;DHT22;35892;48.798;9.698;2023-02-01T00:42:22;5.40;99.90
45535;DHT22;35892;48.798;9.698;2023-02-01T00:44:51;5.50;99.90
45535;DHT22;35892;48.798;9.698;2023-02-01T00:47:17;5.50;99.90
45535;DHT22;35892;48.798;9.698;2023-02-01T00:49:44;5.50;99.90
45535;DHT22;35892;48.798;9.698;2023-02-01T00:52:11;5.50;99.90
45535;DHT22;35892;48.798;9.698;2023-02-01T00:54:37;5.60;99.90
45535;DHT22;35892;48.798;9.698;2023-02-01T00:57:04;5.50;99.90
45535;DHT22;35892;48.798;9.698;2023-02-01T00:59:31;5.50;99.90
45535;DHT22;35892;48.798;9.698;2023-02-01T01:01:57;5.70;99.90
45535;DHT22;35892;48.798;9.698;2023-02-01T01:04:24;5.60;99.90
45535;DHT22;35892;48.798;9.698;2023-02-01T01:06:51;5.50;99.90
45535;DHT22;35892;48.798;9.698;2023-02-01T01:09:17;5.40;99.90
45535;DHT22;35892;48.798;9.698;2023-02-01T01:11:46;5.50;99.90
45535;DHT22;35892;48.798;9.698;2023-02-01T01:14:13;5.60;99.90
45535;DHT22;35892;48.798;9.698;2023-02-01T01:16:40;5.60;99.90
45535;DHT22;35892;48.798;9.698;2023-02-01T01:19:06;5.50;99.90
45535;DHT22;35892;48.798;9.698;2023-02-01T01:21:33;5.50;99.90
45535;DHT22;35892;48.798;9.698;2023-02-01T01:24:04;5.50;99.90
45535;DHT22;35892;48.798;9.698;2023-02-01T01:26:33;5.50;99.90
45535;DHT22;35892;48.798;9.698;2023-02-01T01:29:00;5.50;99.90
45535;DHT22;35892;48.798;9.698;2023-02-01T01:31:27;5.40;99.90
45535;DHT22;35892;48.798;9.698;2023-02-01T01:33:55;5.40;99.90
45535;DHT22;35892;48.798;9.698;2023-02-01T01:36:22;5.40;99.90
45535;DHT22;35892;48.798;9.698;2023-02-01T01:38:49;5.40;99.90
45535;DHT22;35892;48.798;9.698;2023-02-01T01:41:17;5.30;99.90
45535;DHT22;35892;48.798;9.698;2023-02-01T01:44:03;5.20;99.90
45535;DHT22;35892;48.798;9.698;2023-02-01T01:46:39;5.30;99.90
45535;DHT22;35892;48.798;9.698;2023-02-01T01:49:09;5.30;99.90
45535;DHT22;35892;48.798;9.698;2023-02-01T01:51:49;5.40;99.90
45535;DHT22;35892;48.798;9.698;2023-02-01T01:56:51;5.30;99.90
45535;DHT22;35892;48.798;9.698;2023-02-01T01:59:19;5.30;99.90
45535;DHT22;35892;48.798;9.698;2023-02-01T02:01:46;5.30;99.90
45535;DHT22;35892;48.798;9.698;2023-02-01T02:04:13;5.30;99.90
45535;DHT22;35892;48.798;9.698;2023-02-01T02:06:45;5.20;99.90
45535;DHT22;35892;48.798;9.698;2023-02-01T02:09:14;5.30;99.90
45535;DHT22;35892;48.798;9.698;2023-02-01T02:11:41;5.30;99.90
45535;DHT22;35892;48.798;9.698;2023-02-01T02:14:09;5.40;99.90
45535;DHT22;35892;48.798;9.698;2023-02-01T02:17:21;5.40;99.90
45535;DHT22;35892;48.798;9.698;2023-02-01T02:19:32;5.40;99.90
45535;DHT22;35892;48.798;9.698;2023-02-01T02:28:02;5.40;99.90
45535;DHT22;35892;48.798;9.698;2023-02-01T02:41:09;5.60;99.90
45535;DHT22;35892;48.798;9.698;2023-02-01T02:43:59;5.60;99.90
45535;DHT22;35892;48.798;9.698;2023-02-01T02:46:48;5.60;99.90
45535;DHT22;35892;48.798;9.698;2023-02-01T02:49:42;5.60;99.90
45535;DHT22;35892;48.798;9.698;2023-02-01T02:52:31;5.50;99.90
45535;DHT22;35892;48.798;9.698;2023-02-01T02:55:17;5.50;99.90
45535;DHT22;35892;48.798;9.698;2023-02-01T02:57:44;5.60;99.90
45535;DHT22;35892;48.798;9.698;2023-02-01T03:00:31;5.60;99.90
45535;DHT22;35892;48.798;9.698;2023-02-01T03:03:17;5.60;99.90
45535;DHT22;35892;48.798;9.698;2023-02-01T03:06:08;5.60;99.90
45535;DHT22;35892;48.798;9.698;2023-02-01T03:08:37;5.60;99.90
45535;DHT22;35892;48.798;9.698;2023-02-01T03:21:41;5.60;99.90
45535;DHT22;35892;48.798;9.698;2023-02-01T03:24:12;5.70;99.90
45535;DHT22;35892;48.798;9.698;2023-02-01T03:26:42;5.80;99.90
45535;DHT22;35892;48.798;9.698;2023-02-01T03:29:16;5.80;99.90
45535;DHT22;35892;48.798;9.698;2023-02-01T03:31:44;5.90;99.90
45535;DHT22;35892;48.798;9.698;2023-02-01T03:34:11;5.70;99.90
45535;DHT22;35892;48.798;9.698;2023-02-01T03:36:43;5.70;99.90
45535;DHT22;35892;48.798;9.698;2023-02-01T03:41:49;5.70;99.90
45535;DHT22;35892;48.798;9.698;2023-02-01T03:44:22;5.60;99.90
45535;DHT22;35892;48.798;9.698;2023-02-01T03:46:50;5.50;99.90
45535;DHT22;35892;48.798;9.698;2023-02-01T03:49:28;5.40;99.90
45535;DHT22;35892;48.798;9.698;2023-02-01T03:51:56;5.50;99.90
45535;DHT22;35892;48.798;9.698;2023-02-01T03:54:27;5.60;99.90
45535;DHT22;35892;48.798;9.698;2023-02-01T03:56:55;5.50;99.90
45535;DHT22;35892;48.798;9.698;2023-02-01T03:59:22;5.60;99.90
45535;DHT22;35892;48.798;9.698;2023-02-01T04:01:54;5.60;99.90
45535;DHT22;35892;48.798;9.698;2023-02-01T04:04:23;5.50;99.90
45535;DHT22;35892;48.798;9.698;2023-02-01T04:06:52;5.50;99.90
45535;DHT22;35892;48.798;9.698;2023-02-01T04:09:21;5.40;99.90
45535;DHT22;35892;48.798;9.698;2023-02-01T04:11:48;5.40;99.90
45535;DHT22;35892;48.798;9.698;2023-02-01T04:14:15;5.40;99.90
45535;DHT22;35892;48.798;9.698;2023-02-01T04:16:41;5.40;99.90
45535;DHT22;35892;48.798;9.698;2023-02-01T04:19:08;5.40;99.90
45535;DHT22;35892;48.798;9.698;2023-02-01T04:21:35;5.40;99.90
45535;DHT22;35892;48.798;9.698;2023-02-01T04:24:01;5.60;99.90
45535;DHT22;35892;48.798;9.698;2023-02-01T04:26:28;5.60;99.90
45535;DHT22;35892;48.798;9.698;2023-02-01T04:28:57;5.60;99.90
45535;DHT22;35892;48.798;9.698;2023-02-01T04:31:26;5.60;99.90
45535;DHT22;35892;48.798;9.698;2023-02-01T04:33:54;5.50;99.90
45535;DHT22;35892;48.798;9.698;2023-02-01T04:36:21;5.50;99.90
45535;DHT22;35892;48.798;9.698;2023-02-01T04:38:48;5.60;99.90
45535;DHT22;35892;48.798;9.698;2023-02-01T04:41:15;5.60;99.90
45535;DHT22;35892;48.798;9.698;2023-02-01T04:43:49;5.60;99.90
45535;DHT22;35892;48.798;9.698;2023-02-01T04:46:16;5.60;99.90
45535;DHT22;35892;48.798;9.698;2023-02-01T04:48:42;5.60;99.90
45535;DHT22;35892;48.798;9.698;2023-02-01T04:51:09;5.70;99.90
45535;DHT22;35892;48.798;9.698;2023-02-01T04:53:38;5.70;99.90
45535;DHT22;35892;48.798;9.698;2023-02-01T04:56:05;5.60;99.90
45535;DHT22;35892;48.798;9.698;2023-02-01T04:58:34;5.60;99.90
45535;DHT22;35892;48.798;9.698;2023-02-01T05:01:04;5.50;99.90
45535;DHT22;35892;48.798;9.698;2023-02-01T05:03:35;5.60;99.90
45535;DHT22;35892;48.798;9.698;2023-02-01T05:06:01;5.60;99.90
45535;DHT22;35892;48.798;9.698;2023-02-01T05:08:30;5.60;99.90
45535;DHT22;35892;48.798;9.698;2023-02-01T05:10:57;5.60;99.90
45535;DHT22;35892;48.798;9.698;2023-02-01T05:13:25;5.70;99.90
45535;DHT22;35892;48.798;9.698;2023-02-01T05:16:10;5.70;99.90
45535;DHT22;35892;48.798;9.698;2023-02-01T05:18:37;5.90;99.90
45535;DHT22;35892;48.798;9.698;2023-02-01T05:21:04;5.80;99.90
45535;DHT22;35892;48.798;9.698;2023-02-01T05:23:31;5.80;99.90
45535;DHT22;35892;48.798;9.698;2023-02-01T05:25:58;5.80;99.90
45535;DHT22;35892;48.798;9.698;2023-02-01T05:28:27;5.70;99.90
45535;DHT22;35892;48.798;9.698;2023-02-01T05:30:57;5.70;99.90
45535;DHT22;35892;48.798;9.698;2023-02-01T05:33:23;5.80;99.90
45535;DHT22;35892;48.798;9.698;2023-02-01T05:35:50;5.70;99.90
45535;DHT22;35892;48.798;9.698;2023-02-01T05:38:17;5.80;99.90
45535;DHT22;35892;48.798;9.698;2023-02-01T05:40:43;5.70;99.90
45535;DHT22;35892;48.798;9.698;2023-02-01T05:43:15;5.70;99.90
45535;DHT22;35892;48.798;9.698;2023-02-01T05:45:42;5.70;99.90
45535;DHT22;35892;48.798;9.698;2023-02-01T05:48:09;5.70;99.90
45535;DHT22;35892;48.798;9.698;2023-02-01T05:50:35;5.70;99.90
45535;DHT22;35892;48.798;9.698;2023-02-01T05:53:02;5.70;99.90
45535;DHT22;35892;48.798;9.698;2023-02-01T05:55:29;5.70;99.90
45535;DHT22;35892;48.798;9.698;2023-02-01T05:57:58;5.70;99.90
45535;DHT22;35892;48.798;9.698;2023-02-01T06:00:25;6.00;99.90
45535;DHT22;35892;48.798;9.698;2023-02-01T06:02:54;6.00;99.90
45535;DHT22;35892;48.798;9.698;2023-02-01T06:05:20;6.00;99.90
45535;DHT22;35892;48.798;9.698;2023-02-01T06:07:47;5.90;99.90
45535;DHT22;35892;48.798;9.698;2023-02-01T06:10:16;5.80;99.90
45535;DHT22;35892;48.798;9.698;2023-02-01T06:12:43;5.80;99.90
45535;DHT22;35892;48.798;9.698;2023-02-01T06:15:11;5.70;99.90
45535;DHT22;35892;48.798;9.698;2023-02-01T06:17:38;5.70;99.90
45535;DHT22;35892;48.798;9.698;2023-02-01T06:20:06;5.60;99.90
45535;DHT22;35892;48.798;9.698;2023-02-01T06:22:33;5.70;99.90
45535;DHT22;35892;48.798;9.698;2023-02-01T06:24:59;5.70;99.90
45535;DHT22;35892;48.798;9.698;2023-02-01T06:27:26;5.80;99.90
45535;DHT22;35892;48.798;9.698;2023-02-01T06:29:53;5.80;99.90
45535;DHT22;35892;48.798;9.698;2023-02-01T06:32:19;5.80;99.90
45535;DHT22;35892;48.798;9.698;2023-02-01T06:34:46;5.80;99.90
45535;DHT22;35892;48.798;9.698;2023-02-01T06:37:15;5.80;99.90
45535;DHT22;35892;48.798;9.698;2023-02-01T06:39:44;5.90;99.90
45535;DHT22;35892;48.798;9.698;2023-02-01T06:42:13;5.90;99.90
45535;DHT22;35892;48.798;9.698;2023-02-01T06:44:40;5.80;99.90
45535;DHT22;35892;48.798;9.698;2023-02-01T06:47:09;5.80;99.90
45535;DHT22;35892;48.798;9.698;2023-02-01T06:49:35;5.80;99.90
45535;DHT22;35892;48.798;9.698;2023-02-01T06:52:02;5.80;99.90
45535;DHT22;35892;48.798;9.698;2023-02-01T06:54:29;5.80;99.90
45535;DHT22;35892;48.798;9.698;2023-02-01T06:57:00;5.80;99.90
45535;DHT22;35892;48.798;9.698;2023-02-01T06:59:27;5.80;99.90
45535;DHT22;35892;48.798;9.698;2023-02-01T07:01:54;5.80;99.90
45535;DHT22;35892;48.798;9.698;2023-02-01T07:04:20;5.80;99.90
45535;DHT22;35892;48.798;9.698;2023-02-01T07:06:50;5.90;99.90
45535;DHT22;35892;48.798;9.698;2023-02-01T07:09:16;6.00;99.90
45535;DHT22;35892;48.798;9.698;2023-02-01T07:11:43;5.90;99.90
45535;DHT22;35892;48.798;9.698;2023-02-01T07:14:12;5.90;99.90
45535;DHT22;35892;48.798;9.698;2023-02-01T07:16:42;5.80;99.90
45535;DHT22;35892;48.798;9.698;2023-02-01T07:19:08;5.80;99.90
45535;DHT22;35892;48.798;9.698;2023-02-01T07:21:40;5.80;99.90
45535;DHT22;35892;48.798;9.698;2023-02-01T07:24:06;5.90;99.90
45535;DHT22;35892;48.798;9.698;2023-02-01T07:26:33;5.90;99.90
45535;DHT22;35892;48.798;9.698;2023-02-01T07:29:02;5.90;99.90
45535;DHT22;35892;48.798;9.698;2023-02-01T07:31:31;5.90;99.90
45535;DHT22;35892;48.798;9.698;2023-02-01T07:33:58;5.90;99.90
45535;DHT22;35892;48.798;9.698;2023-02-01T07:36:25;5.90;99.90
45535;DHT22;35892;48.798;9.698;2023-02-01T07:38:51;5.80;99.90
45535;DHT22;35892;48.798;9.698;2023-02-01T07:41:22;5.80;99.90
45535;DHT22;35892;48.798;9.698;2023-02-01T07:43:51;5.80;99.90
45535;DHT22;35892;48.798;9.698;2023-02-01T07:46:18;5.60;99.90
45535;DHT22;35892;48.798;9.698;2023-02-01T07:48:45;5.70;99.90
45535;DHT22;35892;48.798;9.698;2023-02-01T07:51:12;5.60;99.90
45535;DHT22;35892;48.798;9.698;2023-02-01T07:53:40;5.50;99.90
45535;DHT22;35892;48.798;9.698;2023-02-01T07:56:14;5.60;99.90
45535;DHT22;35892;48.798;9.698;2023-02-01T07:58:46;5.60;99.90
45535;DHT22;35892;48.798;9.698;2023-02-01T08:01:17;5.60;99.90
45535;DHT22;35892;48.798;9.698;2023-02-01T08:03:56;5.60;99.90
45535;DHT22;35892;48.798;9.698;2023-02-01T08:06:23;5.70;99.90
45535;DHT22;35892;48.798;9.698;2023-02-01T08:08:51;5.70;99.90
45535;DHT22;35892;48.798;9.698;2023-02-01T08:11:21;5.70;99.90
45535;DHT22;35892;48.798;9.698;2023-02-01T08:13:50;5.70;99.90
45535;DHT22;35892;48.798;9.698;2023-02-01T08:16:17;5.80;99.90
45535;DHT22;35892;48.798;9.698;2023-02-01T08:18:44;5.70;99.90
45535;DHT22;35892;48.798;9.698;2023-02-01T08:21:17;5.60;99.90
45535;DHT22;35892;48.798;9.698;2023-02-01T08:23:44;5.70;99.90
45535;DHT22;35892;48.798;9.698;2023-02-01T08:28:47;5.80;99.90
45535;DHT22;35892;48.798;9.698;2023-02-01T08:31:18;5.80;99.90
45535;DHT22;35892;48.798;9.698;2023-02-01T08:33:50;5.70;99.90
45535;DHT22;35892;48.798;9.698;2023-02-01T08:36:18;5.70;99.90
45535;DHT22;35892;48.798;9.698;2023-02-01T08:38:47;5.70;99.90
45535;DHT22;35892;48.798;9.698;2023-02-01T08:41:15;5.80;99.90
45535;DHT22;35892;48.798;9.698;2023-02-01T08:43:42;5.90;99.90
45535;DHT22;35892;48.798;9.698;2023-02-01T08:46:10;5.80;99.90
45535;DHT22;35892;48.798;9.698;2023-02-01T08:48:39;5.90;99.90
45535;DHT22;35892;48.798;9.698;2023-02-01T08:51:07;5.90;99.90
45535;DHT22;35892;48.798;9.698;2023-02-01T08:53:38;6.00;99.90
45535;DHT22;35892;48.798;9.698;2023-02-01T08:56:08;6.00;99.90
45535;DHT22;35892;48.798;9.698;2023-02-01T08:58:37;6.00;99.90
45535;DHT22;35892;48.798;9.698;2023-02-01T09:01:07;6.00;99.90
45535;DHT22;35892;48.798;9.698;2023-02-01T09:03:34;5.90;99.90
45535;DHT22;35892;48.798;9.698;2023-02-01T09:06:04;6.10;99.90
45535;DHT22;35892;48.798;9.698;2023-02-01T09:08:33;6.30;99.90
45535;DHT22;35892;48.798;9.698;2023-02-01T09:11:01;6.30;99.90
45535;DHT22;35892;48.798;9.698;2023-02-01T09:13:29;6.30;99.90
45535;DHT22;35892;48.798;9.698;2023-02-01T09:15:55;6.30;99.90
45535;DHT22;35892;48.798;9.698;2023-02-01T09:18:22;6.20;99.90
45535;DHT22;35892;48.798;9.698;2023-02-01T09:20:49;6.20;99.90
45535;DHT22;35892;48.798;9.698;2023-02-01T09:23:16;6.30;99.90
45535;DHT22;35892;48.798;9.698;2023-02-01T09:25:45;6.30;99.90
45535;DHT22;35892;48.798;9.698;2023-02-01T09:28:11;6.50;99.90
45535;DHT22;35892;48.798;9.698;2023-02-01T09:30:40;6.50;99.90
45535;DHT22;35892;48.798;9.698;2023-02-01T09:33:07;6.50;99.90
45535;DHT22;35892;48.798;9.698;2023-02-01T09:35:36;6.60;99.90
45535;DHT22;35892;48.798;9.698;2023-02-01T09:38:05;6.70;99.90
45535;DHT22;35892;48.798;9.698;2023-02-01T09:40:33;6.70;99.90
45535;DHT22;35892;48.798;9.698;2023-02-01T09:48:15;6.50;99.90
45535;DHT22;35892;48.798;9.698;2023-02-01T09:50:56;6.50;99.90
45535;DHT22;35892;48.798;9.698;2023-02-01T09:53:37;6.40;99.90
45535;DHT22;35892;48.798;9.698;2023-02-01T09:56:10;6.40;99.90
45535;DHT22;35892;48.798;9.698;2023-02-01T09:58:42;6.30;99.90
45535;DHT22;35892;48.798;9.698;2023-02-01T10:01:29;6.20;99.90
45535;DHT22;35892;48.798;9.698;2023-02-01T10:04:07;6.20;99.90
45535;DHT22;35892;48.798;9.698;2023-02-01T10:17:13;6.20;99.90
45535;DHT22;35892;48.798;9.698;2023-02-01T10:20:07;6.20;99.90
45535;DHT22;35892;48.798;9.698;2023-02-01T10:25:23;6.20;99.90
45535;DHT22;35892;48.798;9.698;2023-02-01T10:27:52;6.30;99.90
45535;DHT22;35892;48.798;9.698;2023-02-01T10:30:20;6.40;99.90
45535;DHT22;35892;48.798;9.698;2023-02-01T10:32:52;6.40;99.90
45535;DHT22;35892;48.798;9.698;2023-02-01T10:35:22;6.60;99.90
45535;DHT22;35892;48.798;9.698;2023-02-01T10:37:50;6.60;99.90
45535;DHT22;35892;48.798;9.698;2023-02-01T10:42:44;6.80;99.90
45535;DHT22;35892;48.798;9.698;2023-02-01T10:45:30;7.00;99.90
45535;DHT22;35892;48.798;9.698;2023-02-01T10:47:59;7.10;99.90
45535;DHT22;35892;48.798;9.698;2023-02-01T10:51:10;7.20;99.90
45535;DHT22;35892;48.798;9.698;2023-02-01T11:00:53;7.30;99.90
45535;DHT22;35892;48.798;9.698;2023-02-01T11:05:54;7.30;99.90
45535;DHT22;35892;48.798;9.698;2023-02-01T11:08:23;7.20;99.90
45535;DHT22;35892;48.798;9.698;2023-02-01T11:10:56;7.20;99.90
45535;DHT22;35892;48.798;9.698;2023-02-01T11:13:27;7.10;99.90
45535;DHT22;35892;48.798;9.698;2023-02-01T11:15:55;7.10;99.90
45535;DHT22;35892;48.798;9.698;2023-02-01T11:18:29;7.10;99.90
45535;DHT22;35892;48.798;9.698;2023-02-01T11:20:56;7.10;99.90
45535;DHT22;35892;48.798;9.698;2023-02-01T11:23:24;7.10;99.90
45535;DHT22;35892;48.798;9.698;2023-02-01T11:25:55;7.00;99.90
45535;DHT22;35892;48.798;9.698;2023-02-01T11:28:32;6.90;99.90
45535;DHT22;35892;48.798;9.698;2023-02-01T11:31:03;6.80;99.90
45535;DHT22;35892;48.798;9.698;2023-02-01T11:33:31;6.80;99.90
45535;DHT22;35892;48.798;9.698;2023-02-01T11:36:08;6.90;99.90
45535;DHT22;35892;48.798;9.698;2023-02-01T11:38:35;6.90;99.90
45535;DHT22;35892;48.798;9.698;2023-02-01T11:41:11;6.90;99.90
45535;DHT22;35892;48.798;9.698;2023-02-01T11:43:56;6.90;99.90
45535;DHT22;35892;48.798;9.698;2023-02-01T11:46:29;6.90;99.90
45535;DHT22;35892;48.798;9.698;2023-02-01T11:48:57;7.00;99.90
45535;DHT22;35892;48.798;9.698;2023-02-01T11:51:53;6.90;99.90
45535;DHT22;35892;48.798;9.698;2023-02-01T12:02:15;7.10;99.90
45535;DHT22;35892;48.798;9.698;2023-02-01T12:12:42;7.20;99.90
45535;DHT22;35892;48.798;9.698;2023-02-01T12:21:00;7.20;99.90
45535;DHT22;35892;48.798;9.698;2023-02-01T12:31:40;7.20;99.90
45535;DHT22;35892;48.798;9.698;2023-02-01T12:37:11;7.10;99.90
45535;DHT22;35892;48.798;9.698;2023-02-01T12:44:42;7.10;99.90
45535;DHT22;35892;48.798;9.698;2023-02-01T12:47:15;7.10;99.90
45535;DHT22;35892;48.798;9.698;2023-02-01T12:54:50;7.00;99.90
45535;DHT22;35892;48.798;9.698;2023-02-01T12:57:31;7.00;99.90
45535;DHT22;35892;48.798;9.698;2023-02-01T13:02:44;7.20;99.90
45535;DHT22;35892;48.798;9.698;2023-02-01T13:05:24;7.30;99.90
45535;DHT22;35892;48.798;9.698;2023-02-01T13:07:59;7.30;99.90
45535;DHT22;35892;48.798;9.698;2023-02-01T13:10:34;7.20;99.90
45535;DHT22;35892;48.798;9.698;2023-02-01T13:13:46;7.20;99.90
45535;DHT22;35892;48.798;9.698;2023-02-01T13:15:57;7.20;99.90
45535;DHT22;35892;48.798;9.698;2023-02-01T13:18:26;7.10;99.90
45535;DHT22;35892;48.798;9.698;2023-02-01T13:21:01;7.10;99.90
45535;DHT22;35892;48.798;9.698;2023-02-01T13:23:29;7.20;99.90
45535;DHT22;35892;48.798;9.698;2023-02-01T13:25:56;7.20;99.90
45535;DHT22;35892;48.798;9.698;2023-02-01T13:28:32;7.10;99.90
45535;DHT22;35892;48.798;9.698;2023-02-01T13:33:40;7.10;99.90
45535;DHT22;35892;48.798;9.698;2023-02-01T13:44:34;7.00;99.90
45535;DHT22;35892;48.798;9.698;2023-02-01T13:49:49;6.80;99.90
45535;DHT22;35892;48.798;9.698;2023-02-01T13:52:27;6.90;99.90
45535;DHT22;35892;48.798;9.698;2023-02-01T14:00:36;6.90;99.90
45535;DHT22;35892;48.798;9.698;2023-02-01T14:03:08;7.00;99.90
45535;DHT22;35892;48.798;9.698;2023-02-01T14:05:57;6.90;99.90
45535;DHT22;35892;48.798;9.698;2023-02-01T14:08:23;6.90;99.90
45535;DHT22;35892;48.798;9.698;2023-02-01T14:13:33;6.90;99.90
45535;DHT22;35892;48.798;9.698;2023-02-01T14:24:24;7.00;99.90
45535;DHT22;35892;48.798;9.698;2023-02-01T14:26:49;7.10;99.90
45535;DHT22;35892;48.798;9.698;2023-02-01T14:34:31;7.10;99.90
45535;DHT22;35892;48.798;9.698;2023-02-01T14:37:05;7.20;99.90
45535;DHT22;35892;48.798;9.698;2023-02-01T14:39:34;7.20;99.90
45535;DHT22;35892;48.798;9.698;2023-02-01T14:42:15;7.20;99.90
45535;DHT22;35892;48.798;9.698;2023-02-01T14:44:44;7.20;99.90
45535;DHT22;35892;48.798;9.698;2023-02-01T14:47:27;7.20;99.90
45535;DHT22;35892;48.798;9.698;2023-02-01T14:52:32;7.10;99.90
45535;DHT22;35892;48.798;9.698;2023-02-01T14:55:01;7.10;99.90
45535;DHT22;35892;48.798;9.698;2023-02-01T14:57:36;7.10;99.90
45535;DHT22;35892;48.798;9.698;2023-02-01T15:02:49;6.90;99.90
45535;DHT22;35892;48.798;9.698;2023-02-01T15:05:35;6.90;99.90
45535;DHT22;35892;48.798;9.698;2023-02-01T15:08:13;6.90;99.90
45535;DHT22;35892;48.798;9.698;2023-02-01T15:10:46;6.90;99.90
45535;DHT22;35892;48.798;9.698;2023-02-01T15:13:26;6.90;99.90
45535;DHT22;35892;48.798;9.698;2023-02-01T15:16:00;6.80;99.90
45535;DHT22;35892;48.798;9.698;2023-02-01T15:18:26;6.80;99.90
45535;DHT22;35892;48.798;9.698;2023-02-01T15:20:57;7.00;99.90
45535;DHT22;35892;48.798;9.698;2023-02-01T15:23:44;7.00;99.90
45535;DHT22;35892;48.798;9.698;2023-02-01T15:26:24;7.00;99.90
45535;DHT22;35892;48.798;9.698;2023-02-01T15:28:51;6.90;99.90
45535;DHT22;35892;48.798;9.698;2023-02-01T15:31:30;6.90;99.90
45535;DHT22;35892;48.798;9.698;2023-02-01T15:33:57;7.00;99.90
45535;DHT22;35892;48.798;9.698;2023-02-01T15:36:26;7.00;99.90
45535;DHT22;35892;48.798;9.698;2023-02-01T15:41:51;7.00;99.90
45535;DHT22;35892;48.798;9.698;2023-02-01T15:47:14;7.00;99.90
45535;DHT22;35892;48.798;9.698;2023-02-01T15:49:41;7.10;99.90
45535;DHT22;35892;48.798;9.698;2023-02-01T15:52:18;7.10;99.90
45535;DHT22;35892;48.798;9.698;2023-02-01T15:54:50;7.00;99.90
45535;DHT22;35892;48.798;9.698;2023-02-01T15:57:23;7.10;99.90
45535;DHT22;35892;48.798;9.698;2023-02-01T16:00:00;7.00;99.90
45535;DHT22;35892;48.798;9.698;2023-02-01T16:05:00;7.00;99.90
45535;DHT22;35892;48.798;9.698;2023-02-01T16:07:29;7.00;99.90
45535;DHT22;35892;48.798;9.698;2023-02-01T16:09:57;7.00;99.90
45535;DHT22;35892;48.798;9.698;2023-02-01T16:14:57;7.20;99.90
45535;DHT22;35892;48.798;9.698;2023-02-01T16:17:26;7.10;99.90
45535;DHT22;35892;48.798;9.698;2023-02-01T16:19:52;7.10;99.90
45535;DHT22;35892;48.798;9.698;2023-02-01T16:22:19;7.00;99.90
45535;DHT22;35892;48.798;9.698;2023-02-01T16:24:46;7.10;99.90
45535;DHT22;35892;48.798;9.698;2023-02-01T16:27:15;7.10;99.90
45535;DHT22;35892;48.798;9.698;2023-02-01T16:29:41;7.20;99.90
45535;DHT22;35892;48.798;9.698;2023-02-01T16:32:20;7.10;99.90
45535;DHT22;35892;48.798;9.698;2023-02-01T16:34:50;7.10;99.90
45535;DHT22;35892;48.798;9.698;2023-02-01T16:37:18;7.10;99.90
45535;DHT22;35892;48.798;9.698;2023-02-01T16:39:48;7.10;99.90
45535;DHT22;35892;48.798;9.698;2023-02-01T16:42:15;7.10;99.90
45535;DHT22;35892;48.798;9.698;2023-02-01T16:44:42;7.10;99.90
45535;DHT22;35892;48.798;9.698;2023-02-01T16:47:14;7.20;99.90
45535;DHT22;35892;48.798;9.698;2023-02-01T16:49:42;7.10;99.90
45535;DHT22;35892;48.798;9.698;2023-02-01T16:52:18;7.10;99.90
45535;DHT22;35892;48.798;9.698;2023-02-01T16:54:45;7.00;99.90
45535;DHT22;35892;48.798;9.698;2023-02-01T16:57:13;7.00;99.90
45535;DHT22;35892;48.798;9.698;2023-02-01T16:59:40;6.90;99.90
45535;DHT22;35892;48.798;9.698;2023-02-01T17:02:14;6.90;99.90
45535;DHT22;35892;48.798;9.698;2023-02-01T17:04:43;6.90;99.90
45535;DHT22;35892;48.798;9.698;2023-02-01T17:07:15;6.90;99.90
45535;DHT22;35892;48.798;9.698;2023-02-01T17:09:42;6.90;99.90
45535;DHT22;35892;48.798;9.698;2023-02-01T17:12:18;6.80;99.90
45535;DHT22;35892;48.798;9.698;2023-02-01T17:14:47;6.80;99.90
45535;DHT22;35892;48.798;9.698;2023-02-01T17:17:14;6.80;99.90
45535;DHT22;35892;48.798;9.698;2023-02-01T17:19:49;6.80;99.90
45535;DHT22;35892;48.798;9.698;2023-02-01T17:22:24;6.80;99.90
45535;DHT22;35892;48.798;9.698;2023-02-01T17:24:50;6.80;99.90
45535;DHT22;35892;48.798;9.698;2023-02-01T17:27:17;6.90;99.90
45535;DHT22;35892;48.798;9.698;2023-02-01T17:29:44;6.90;99.90
45535;DHT22;35892;48.798;9.698;2023-02-01T17:32:15;6.80;99.90
45535;DHT22;35892;48.798;9.698;2023-02-01T17:34:42;6.70;99.90
45535;DHT22;35892;48.798;9.698;2023-02-01T17:37:43;6.80;99.90
45535;DHT22;35892;48.798;9.698;2023-02-01T17:40:02;6.80;99.90
45535;DHT22;35892;48.798;9.698;2023-02-01T17:42:29;6.80;99.90
45535;DHT22;35892;48.798;9.698;2023-02-01T17:47:41;6.80;99.90
45535;DHT22;35892;48.798;9.698;2023-02-01T17:50:08;6.80;99.90
45535;DHT22;35892;48.798;9.698;2023-02-01T17:52:35;6.80;99.90
45535;DHT22;35892;48.798;9.698;2023-02-01T17:55:17;6.80;99.90
45535;DHT22;35892;48.798;9.698;2023-02-01T17:57:44;6.80;99.90
45535;DHT22;35892;48.798;9.698;2023-02-01T18:00:11;6.90;99.90
45535;DHT22;35892;48.798;9.698;2023-02-01T18:02:40;6.90;99.90
45535;DHT22;35892;48.798;9.698;2023-02-01T18:05:31;6.90;99.90
45535;DHT22;35892;48.798;9.698;2023-02-01T18:07:54;6.80;99.90
45535;DHT22;35892;48.798;9.698;2023-02-01T18:10:25;6.90;99.90
45535;DHT22;35892;48.798;9.698;2023-02-01T18:12:54;6.90;99.90
45535;DHT22;35892;48.798;9.698;2023-02-01T18:15:23;6.90;99.90
45535;DHT22;35892;48.798;9.698;2023-02-01T18:17:51;6.80;99.90
45535;DHT22;35892;48.798;9.698;2023-02-01T18:20:19;6.80;99.90
45535;DHT22;35892;48.798;9.698;2023-02-01T18:22:49;6.80;99.90
45535;DHT22;35892;48.798;9.698;2023-02-01T18:27:43;6.80;99.90
45535;DHT22;35892;48.798;9.698;2023-02-01T18:30:12;6.70;99.90
45535;DHT22;35892;48.798;9.698;2023-02-01T18:32:41;6.80;99.90
45535;DHT22;35892;48.798;9.698;2023-02-01T18:35:21;6.80;99.90
45535;DHT22;35892;48.798;9.698;2023-02-01T18:37:49;6.80;99.90
45535;DHT22;35892;48.798;9.698;2023-02-01T18:42:43;6.70;99.90
45535;DHT22;35892;48.798;9.698;2023-02-01T18:47:50;6.70;99.90
45535;DHT22;35892;48.798;9.698;2023-02-01T18:50:17;6.70;99.90
45535;DHT22;35892;48.798;9.698;2023-02-01T18:52:45;6.70;99.90
45535;DHT22;35892;48.798;9.698;2023-02-01T18:55:12;6.80;99.90
45535;DHT22;35892;48.798;9.698;2023-02-01T18:57:39;6.80;99.90